sensor_id;sensor_type;location;lat;lon;timestamp;P1;durP1;ratioP1;P2;durP2;ratioP2
5612;SDS011;63463;53.586;9.928;2022-10-16T00:00:39;13.60;;;8.10;;
5612;SDS011;63463;53.586;9.928;2022-10-16T00:03:05;9.80;;;7.60;;
5612;SDS011;63463;53.586;9.928;2022-10-16T00:05:31;13.10;;;6.73;;
5612;SDS011;63463;53.586;9.928;2022-10-16T00:07:57;15.50;;;7.90;;
5612;SDS011;63463;53.586;9.928;2022-10-16T00:10:23;10.37;;;7.33;;
5612;SDS011;63463;53.586;9.928;2022-10-16T00:12:49;9.07;;;6.83;;
5612;SDS011;63463;53.586;9.928;2022-10-16T00:15:15;10.30;;;7.27;;
5612;SDS011;63463;53.586;9.928;2022-10-16T00:17:41;11.33;;;7.13;;
5612;SDS011;63463;53.586;9.928;2022-10-16T00:20:07;9.40;;;6.83;;
5612;SDS011;63463;53.586;9.928;2022-10-16T00:22:33;9.40;;;6.83;;
5612;SDS011;63463;53.586;9.928;2022-10-16T00:24:59;17.07;;;6.97;;
5612;SDS011;63463;53.586;9.928;2022-10-16T00:27:25;7.80;;;6.10;;
5612;SDS011;63463;53.586;9.928;2022-10-16T00:29:51;7.67;;;5.70;;
5612;SDS011;63463;53.586;9.928;2022-10-16T00:32:18;6.43;;;5.17;;
5612;SDS011;63463;53.586;9.928;2022-10-16T00:34:44;6.40;;;5.77;;
5612;SDS011;63463;53.586;9.928;2022-10-16T00:37:10;6.03;;;5.40;;
5612;SDS011;63463;53.586;9.928;2022-10-16T00:39:36;10.73;;;5.50;;
5612;SDS011;63463;53.586;9.928;2022-10-16T00:42:02;5.97;;;4.90;;
5612;SDS011;63463;53.586;9.928;2022-10-16T00:47:28;14.40;;;4.30;;
5612;SDS011;63463;53.586;9.928;2022-10-16T00:50:37;5.60;;;4.50;;
5612;SDS011;63463;53.586;9.928;2022-10-16T00:52:44;4.53;;;4.03;;
5612;SDS011;63463;53.586;9.928;2022-10-16T00:55:11;9.40;;;4.80;;
5612;SDS011;63463;53.586;9.928;2022-10-16T00:57:37;8.30;;;4.60;;
5612;SDS011;63463;53.586;9.928;2022-10-16T01:00:05;8.60;;;3.63;;
5612;SDS011;63463;53.586;9.928;2022-10-16T01:02:31;4.53;;;4.23;;
5612;SDS011;63463;53.586;9.928;2022-10-16T01:04:57;7.60;;;4.10;;
5612;SDS011;63463;53.586;9.928;2022-10-16T01:10:14;9.43;;;4.20;;
5612;SDS011;63463;53.586;9.928;2022-10-16T01:12:57;4.53;;;4.17;;
5612;SDS011;63463;53.586;9.928;2022-10-16T01:20:33;3.93;;;3.63;;
5612;SDS011;63463;53.586;9.928;2022-10-16T01:25:37;3.70;;;3.50;;
5612;SDS011;63463;53.586;9.928;2022-10-16T01:28:05;8.67;;;3.77;;
5612;SDS011;63463;53.586;9.928;2022-10-16T01:30:32;4.50;;;3.60;;
5612;SDS011;63463;53.586;9.928;2022-10-16T01:33:03;9.53;;;4.30;;
5612;SDS011;63463;53.586;9.928;2022-10-16T01:35:37;8.60;;;3.73;;
5612;SDS011;63463;53.586;9.928;2022-10-16T01:38:10;3.80;;;3.50;;
5612;SDS011;63463;53.586;9.928;2022-10-16T01:40:38;4.37;;;3.60;;
5612;SDS011;63463;53.586;9.928;2022-10-16T01:43:06;4.90;;;3.90;;
5612;SDS011;63463;53.586;9.928;2022-10-16T01:45:34;3.87;;;3.67;;
5612;SDS011;63463;53.586;9.928;2022-10-16T01:48:01;6.00;;;3.37;;
5612;SDS011;63463;53.586;9.928;2022-10-16T01:50:29;3.93;;;3.33;;
5612;SDS011;63463;53.586;9.928;2022-10-16T01:52:56;4.93;;;3.63;;
5612;SDS011;63463;53.586;9.928;2022-10-16T01:55:25;7.10;;;3.47;;
5612;SDS011;63463;53.586;9.928;2022-10-16T01:57:54;3.83;;;3.33;;
5612;SDS011;63463;53.586;9.928;2022-10-16T02:00:20;3.50;;;3.20;;
5612;SDS011;63463;53.586;9.928;2022-10-16T02:02:47;7.80;;;3.30;;
5612;SDS011;63463;53.586;9.928;2022-10-16T02:05:25;4.43;;;3.27;;
5612;SDS011;63463;53.586;9.928;2022-10-16T02:07:52;12.17;;;3.40;;
5612;SDS011;63463;53.586;9.928;2022-10-16T02:10:18;6.80;;;3.07;;
5612;SDS011;63463;53.586;9.928;2022-10-16T02:12:45;3.27;;;3.17;;
5612;SDS011;63463;53.586;9.928;2022-10-16T02:15:13;3.13;;;2.97;;
5612;SDS011;63463;53.586;9.928;2022-10-16T02:17:39;8.70;;;3.40;;
5612;SDS011;63463;53.586;9.928;2022-10-16T02:20:05;3.67;;;3.37;;
5612;SDS011;63463;53.586;9.928;2022-10-16T02:22:36;4.87;;;3.20;;
5612;SDS011;63463;53.586;9.928;2022-10-16T02:30:25;12.23;;;3.10;;
5612;SDS011;63463;53.586;9.928;2022-10-16T02:32:53;5.70;;;3.20;;
5612;SDS011;63463;53.586;9.928;2022-10-16T02:35:20;5.23;;;3.03;;
5612;SDS011;63463;53.586;9.928;2022-10-16T02:37:46;3.70;;;3.10;;
5612;SDS011;63463;53.586;9.928;2022-10-16T02:40:13;3.60;;;3.40;;
5612;SDS011;63463;53.586;9.928;2022-10-16T02:42:40;4.10;;;3.50;;
5612;SDS011;63463;53.586;9.928;2022-10-16T02:45:08;3.33;;;2.90;;
5612;SDS011;63463;53.586;9.928;2022-10-16T02:47:34;6.83;;;3.30;;
5612;SDS011;63463;53.586;9.928;2022-10-16T02:50:00;3.27;;;3.07;;
5612;SDS011;63463;53.586;9.928;2022-10-16T02:52:26;12.10;;;3.43;;
5612;SDS011;63463;53.586;9.928;2022-10-16T02:54:52;3.20;;;3.00;;
5612;SDS011;63463;53.586;9.928;2022-10-16T02:57:18;3.17;;;2.83;;
5612;SDS011;63463;53.586;9.928;2022-10-16T02:59:44;16.47;;;3.30;;
5612;SDS011;63463;53.586;9.928;2022-10-16T03:02:10;2.90;;;2.80;;
5612;SDS011;63463;53.586;9.928;2022-10-16T03:04:38;6.77;;;3.30;;
5612;SDS011;63463;53.586;9.928;2022-10-16T03:07:04;4.50;;;3.20;;
5612;SDS011;63463;53.586;9.928;2022-10-16T03:09:29;3.10;;;3.00;;
5612;SDS011;63463;53.586;9.928;2022-10-16T03:11:55;4.73;;;3.30;;
5612;SDS011;63463;53.586;9.928;2022-10-16T03:14:21;4.20;;;3.83;;
5612;SDS011;63463;53.586;9.928;2022-10-16T03:16:47;4.00;;;3.40;;
5612;SDS011;63463;53.586;9.928;2022-10-16T03:19:13;3.47;;;3.20;;
5612;SDS011;63463;53.586;9.928;2022-10-16T03:21:39;3.40;;;3.20;;
5612;SDS011;63463;53.586;9.928;2022-10-16T03:24:05;8.60;;;3.23;;
5612;SDS011;63463;53.586;9.928;2022-10-16T03:26:31;3.20;;;3.00;;
5612;SDS011;63463;53.586;9.928;2022-10-16T03:28:57;2.93;;;2.80;;
5612;SDS011;63463;53.586;9.928;2022-10-16T03:31:23;3.40;;;3.10;;
5612;SDS011;63463;53.586;9.928;2022-10-16T03:33:49;6.00;;;4.03;;
5612;SDS011;63463;53.586;9.928;2022-10-16T03:36:15;3.17;;;2.87;;
5612;SDS011;63463;53.586;9.928;2022-10-16T03:38:41;8.73;;;3.00;;
5612;SDS011;63463;53.586;9.928;2022-10-16T03:41:07;3.30;;;3.10;;
5612;SDS011;63463;53.586;9.928;2022-10-16T03:43:33;3.87;;;3.57;;
5612;SDS011;63463;53.586;9.928;2022-10-16T03:45:59;4.97;;;3.13;;
5612;SDS011;63463;53.586;9.928;2022-10-16T03:48:25;3.93;;;3.40;;
5612;SDS011;63463;53.586;9.928;2022-10-16T03:50:51;4.37;;;3.73;;
5612;SDS011;63463;53.586;9.928;2022-10-16T03:53:17;3.67;;;3.07;;
5612;SDS011;63463;53.586;9.928;2022-10-16T03:55:43;3.20;;;3.00;;
5612;SDS011;63463;53.586;9.928;2022-10-16T03:58:10;5.13;;;3.13;;
5612;SDS011;63463;53.586;9.928;2022-10-16T04:00:39;11.80;;;3.40;;
5612;SDS011;63463;53.586;9.928;2022-10-16T04:03:05;3.37;;;2.90;;
5612;SDS011;63463;53.586;9.928;2022-10-16T04:05:31;6.27;;;3.00;;
5612;SDS011;63463;53.586;9.928;2022-10-16T04:07:57;4.30;;;3.90;;
5612;SDS011;63463;53.586;9.928;2022-10-16T04:10:23;4.60;;;3.20;;
5612;SDS011;63463;53.586;9.928;2022-10-16T04:12:49;4.23;;;3.37;;
5612;SDS011;63463;53.586;9.928;2022-10-16T04:15:15;3.17;;;2.97;;
5612;SDS011;63463;53.586;9.928;2022-10-16T04:17:41;3.10;;;3.00;;
5612;SDS011;63463;53.586;9.928;2022-10-16T04:20:07;3.40;;;3.20;;
5612;SDS011;63463;53.586;9.928;2022-10-16T04:22:33;3.77;;;3.57;;
5612;SDS011;63463;53.586;9.928;2022-10-16T04:24:59;4.20;;;3.77;;
5612;SDS011;63463;53.586;9.928;2022-10-16T04:27:25;3.17;;;2.97;;
5612;SDS011;63463;53.586;9.928;2022-10-16T04:29:51;3.13;;;2.93;;
5612;SDS011;63463;53.586;9.928;2022-10-16T04:32:17;3.33;;;3.10;;
5612;SDS011;63463;53.586;9.928;2022-10-16T04:34:43;5.60;;;3.27;;
5612;SDS011;63463;53.586;9.928;2022-10-16T04:37:09;5.23;;;3.27;;
5612;SDS011;63463;53.586;9.928;2022-10-16T04:39:35;3.00;;;2.90;;
5612;SDS011;63463;53.586;9.928;2022-10-16T04:42:01;4.20;;;3.27;;
5612;SDS011;63463;53.586;9.928;2022-10-16T04:44:27;7.23;;;3.30;;
5612;SDS011;63463;53.586;9.928;2022-10-16T04:46:54;6.57;;;3.57;;
5612;SDS011;63463;53.586;9.928;2022-10-16T04:49:20;3.77;;;2.93;;
5612;SDS011;63463;53.586;9.928;2022-10-16T04:51:46;3.30;;;3.20;;
5612;SDS011;63463;53.586;9.928;2022-10-16T04:54:12;7.17;;;3.37;;
5612;SDS011;63463;53.586;9.928;2022-10-16T04:56:38;8.37;;;3.67;;
5612;SDS011;63463;53.586;9.928;2022-10-16T04:59:15;4.10;;;3.77;;
5612;SDS011;63463;53.586;9.928;2022-10-16T05:01:41;5.63;;;3.90;;
5612;SDS011;63463;53.586;9.928;2022-10-16T05:04:07;3.90;;;3.60;;
5612;SDS011;63463;53.586;9.928;2022-10-16T05:06:33;4.17;;;3.87;;
5612;SDS011;63463;53.586;9.928;2022-10-16T05:08:59;4.50;;;4.17;;
5612;SDS011;63463;53.586;9.928;2022-10-16T05:11:25;3.77;;;3.43;;
5612;SDS011;63463;53.586;9.928;2022-10-16T05:13:51;10.23;;;4.50;;
5612;SDS011;63463;53.586;9.928;2022-10-16T05:16:17;4.97;;;4.10;;
5612;SDS011;63463;53.586;9.928;2022-10-16T05:18:43;11.97;;;4.57;;
5612;SDS011;63463;53.586;9.928;2022-10-16T05:21:09;4.80;;;4.40;;
5612;SDS011;63463;53.586;9.928;2022-10-16T05:23:35;10.33;;;4.80;;
5612;SDS011;63463;53.586;9.928;2022-10-16T05:26:01;7.73;;;3.90;;
5612;SDS011;63463;53.586;9.928;2022-10-16T05:28:28;4.80;;;4.30;;
5612;SDS011;63463;53.586;9.928;2022-10-16T05:30:55;8.40;;;4.07;;
5612;SDS011;63463;53.586;9.928;2022-10-16T05:36:24;11.43;;;4.57;;
5612;SDS011;63463;53.586;9.928;2022-10-16T05:38:51;8.00;;;4.80;;
5612;SDS011;63463;53.586;9.928;2022-10-16T05:41:17;7.60;;;4.37;;
5612;SDS011;63463;53.586;9.928;2022-10-16T05:43:48;6.13;;;4.37;;
5612;SDS011;63463;53.586;9.928;2022-10-16T05:46:15;5.00;;;4.33;;
5612;SDS011;63463;53.586;9.928;2022-10-16T05:48:40;6.60;;;4.53;;
5612;SDS011;63463;53.586;9.928;2022-10-16T05:51:07;4.50;;;4.10;;
5612;SDS011;63463;53.586;9.928;2022-10-16T05:53:35;5.60;;;4.73;;
5612;SDS011;63463;53.586;9.928;2022-10-16T05:56:01;4.63;;;4.23;;
5612;SDS011;63463;53.586;9.928;2022-10-16T05:58:31;10.67;;;3.73;;
5612;SDS011;63463;53.586;9.928;2022-10-16T06:00:59;6.07;;;4.13;;
5612;SDS011;63463;53.586;9.928;2022-10-16T06:03:25;4.47;;;4.00;;
5612;SDS011;63463;53.586;9.928;2022-10-16T06:05:51;4.10;;;3.90;;
5612;SDS011;63463;53.586;9.928;2022-10-16T06:08:17;6.77;;;4.00;;
5612;SDS011;63463;53.586;9.928;2022-10-16T06:10:45;5.07;;;3.87;;
5612;SDS011;63463;53.586;9.928;2022-10-16T06:13:11;4.13;;;3.77;;
5612;SDS011;63463;53.586;9.928;2022-10-16T06:15:39;8.13;;;4.27;;
5612;SDS011;63463;53.586;9.928;2022-10-16T06:18:06;6.70;;;4.53;;
5612;SDS011;63463;53.586;9.928;2022-10-16T06:20:32;5.20;;;4.10;;
5612;SDS011;63463;53.586;9.928;2022-10-16T06:22:58;7.37;;;4.07;;
5612;SDS011;63463;53.586;9.928;2022-10-16T06:25:24;6.17;;;4.23;;
5612;SDS011;63463;53.586;9.928;2022-10-16T06:27:50;7.13;;;4.60;;
5612;SDS011;63463;53.586;9.928;2022-10-16T06:30:16;4.60;;;3.60;;
5612;SDS011;63463;53.586;9.928;2022-10-16T06:32:42;5.23;;;4.30;;
5612;SDS011;63463;53.586;9.928;2022-10-16T06:35:08;6.30;;;3.80;;
5612;SDS011;63463;53.586;9.928;2022-10-16T06:37:34;5.33;;;4.10;;
5612;SDS011;63463;53.586;9.928;2022-10-16T06:40:00;6.20;;;3.80;;
5612;SDS011;63463;53.586;9.928;2022-10-16T06:42:29;14.23;;;4.07;;
5612;SDS011;63463;53.586;9.928;2022-10-16T06:44:55;8.50;;;3.87;;
5612;SDS011;63463;53.586;9.928;2022-10-16T06:47:21;6.57;;;4.07;;
5612;SDS011;63463;53.586;9.928;2022-10-16T06:49:47;5.17;;;4.67;;
5612;SDS011;63463;53.586;9.928;2022-10-16T06:52:13;4.77;;;3.70;;
5612;SDS011;63463;53.586;9.928;2022-10-16T06:54:38;8.17;;;4.20;;
5612;SDS011;63463;53.586;9.928;2022-10-16T06:57:04;5.67;;;4.03;;
5612;SDS011;63463;53.586;9.928;2022-10-16T06:59:30;7.60;;;3.77;;
5612;SDS011;63463;53.586;9.928;2022-10-16T07:01:56;6.03;;;4.60;;
5612;SDS011;63463;53.586;9.928;2022-10-16T07:04:22;8.67;;;4.50;;
5612;SDS011;63463;53.586;9.928;2022-10-16T07:06:48;4.40;;;4.10;;
5612;SDS011;63463;53.586;9.928;2022-10-16T07:09:14;5.17;;;4.70;;
5612;SDS011;63463;53.586;9.928;2022-10-16T07:11:40;8.57;;;4.73;;
5612;SDS011;63463;53.586;9.928;2022-10-16T07:14:14;11.00;;;5.00;;
5612;SDS011;63463;53.586;9.928;2022-10-16T07:16:40;5.00;;;4.50;;
5612;SDS011;63463;53.586;9.928;2022-10-16T07:19:07;4.87;;;4.40;;
5612;SDS011;63463;53.586;9.928;2022-10-16T07:21:33;9.63;;;4.63;;
5612;SDS011;63463;53.586;9.928;2022-10-16T07:24:06;6.50;;;4.30;;
5612;SDS011;63463;53.586;9.928;2022-10-16T07:26:34;4.60;;;4.10;;
5612;SDS011;63463;53.586;9.928;2022-10-16T07:29:00;7.17;;;4.57;;
5612;SDS011;63463;53.586;9.928;2022-10-16T07:31:26;8.03;;;4.40;;
5612;SDS011;63463;53.586;9.928;2022-10-16T07:33:52;5.43;;;4.80;;
5612;SDS011;63463;53.586;9.928;2022-10-16T07:36:19;5.23;;;4.70;;
5612;SDS011;63463;53.586;9.928;2022-10-16T07:38:46;6.50;;;4.40;;
5612;SDS011;63463;53.586;9.928;2022-10-16T07:41:14;4.60;;;4.30;;
5612;SDS011;63463;53.586;9.928;2022-10-16T07:43:40;5.93;;;4.47;;
5612;SDS011;63463;53.586;9.928;2022-10-16T07:46:10;5.43;;;4.93;;
5612;SDS011;63463;53.586;9.928;2022-10-16T07:48:36;7.40;;;4.17;;
5612;SDS011;63463;53.586;9.928;2022-10-16T07:51:03;6.30;;;4.83;;
5612;SDS011;63463;53.586;9.928;2022-10-16T07:53:30;5.57;;;4.80;;
5612;SDS011;63463;53.586;9.928;2022-10-16T07:55:59;8.40;;;4.37;;
5612;SDS011;63463;53.586;9.928;2022-10-16T07:58:26;8.13;;;4.40;;
5612;SDS011;63463;53.586;9.928;2022-10-16T08:00:52;5.70;;;4.47;;
5612;SDS011;63463;53.586;9.928;2022-10-16T08:03:18;7.20;;;5.13;;
5612;SDS011;63463;53.586;9.928;2022-10-16T08:05:44;4.63;;;4.07;;
5612;SDS011;63463;53.586;9.928;2022-10-16T08:08:14;4.63;;;4.23;;
5612;SDS011;63463;53.586;9.928;2022-10-16T08:10:40;5.63;;;4.63;;
5612;SDS011;63463;53.586;9.928;2022-10-16T08:13:07;4.60;;;4.20;;
5612;SDS011;63463;53.586;9.928;2022-10-16T08:15:33;5.53;;;4.70;;
5612;SDS011;63463;53.586;9.928;2022-10-16T08:18:03;11.63;;;4.67;;
5612;SDS011;63463;53.586;9.928;2022-10-16T08:20:30;6.07;;;4.70;;
5612;SDS011;63463;53.586;9.928;2022-10-16T08:22:56;6.30;;;4.03;;
5612;SDS011;63463;53.586;9.928;2022-10-16T08:25:22;8.67;;;4.80;;
5612;SDS011;63463;53.586;9.928;2022-10-16T08:27:48;6.07;;;4.07;;
5612;SDS011;63463;53.586;9.928;2022-10-16T08:30:15;4.90;;;4.27;;
5612;SDS011;63463;53.586;9.928;2022-10-16T08:32:41;8.50;;;4.70;;
5612;SDS011;63463;53.586;9.928;2022-10-16T08:35:08;4.47;;;4.07;;
5612;SDS011;63463;53.586;9.928;2022-10-16T08:37:34;5.73;;;3.97;;
5612;SDS011;63463;53.586;9.928;2022-10-16T08:40:00;5.93;;;3.87;;
5612;SDS011;63463;53.586;9.928;2022-10-16T08:42:51;5.40;;;3.50;;
5612;SDS011;63463;53.586;9.928;2022-10-16T08:45:30;6.80;;;4.13;;
5612;SDS011;63463;53.586;9.928;2022-10-16T08:48:13;4.80;;;3.97;;
5612;SDS011;63463;53.586;9.928;2022-10-16T08:50:40;6.90;;;3.80;;
5612;SDS011;63463;53.586;9.928;2022-10-16T08:53:06;10.57;;;3.87;;
5612;SDS011;63463;53.586;9.928;2022-10-16T08:58:01;4.30;;;3.60;;
5612;SDS011;63463;53.586;9.928;2022-10-16T09:00:27;5.40;;;3.80;;
5612;SDS011;63463;53.586;9.928;2022-10-16T09:09:02;4.20;;;3.20;;
5612;SDS011;63463;53.586;9.928;2022-10-16T09:11:12;3.27;;;3.00;;
5612;SDS011;63463;53.586;9.928;2022-10-16T09:13:48;8.53;;;3.23;;
5612;SDS011;63463;53.586;9.928;2022-10-16T09:21:29;10.13;;;2.83;;
5612;SDS011;63463;53.586;9.928;2022-10-16T09:23:59;4.53;;;3.00;;
5612;SDS011;63463;53.586;9.928;2022-10-16T09:26:25;2.93;;;2.60;;
5612;SDS011;63463;53.586;9.928;2022-10-16T09:28:52;5.57;;;2.97;;
5612;SDS011;63463;53.586;9.928;2022-10-16T09:31:20;6.40;;;3.00;;
5612;SDS011;63463;53.586;9.928;2022-10-16T09:33:48;6.93;;;2.83;;
5612;SDS011;63463;53.586;9.928;2022-10-16T09:36:15;3.70;;;2.70;;
5612;SDS011;63463;53.586;9.928;2022-10-16T09:38:41;5.40;;;2.53;;
5612;SDS011;63463;53.586;9.928;2022-10-16T09:41:17;7.23;;;2.63;;
5612;SDS011;63463;53.586;9.928;2022-10-16T09:43:57;2.53;;;2.30;;
5612;SDS011;63463;53.586;9.928;2022-10-16T09:46:28;5.70;;;2.33;;
5612;SDS011;63463;53.586;9.928;2022-10-16T09:49:37;5.37;;;2.80;;
5612;SDS011;63463;53.586;9.928;2022-10-16T09:51:44;3.20;;;2.90;;
5612;SDS011;63463;53.586;9.928;2022-10-16T09:56:36;2.53;;;2.30;;
5612;SDS011;63463;53.586;9.928;2022-10-16T09:59:13;5.43;;;2.50;;
5612;SDS011;63463;53.586;9.928;2022-10-16T10:01:40;5.67;;;2.40;;
5612;SDS011;63463;53.586;9.928;2022-10-16T10:04:07;2.60;;;2.40;;
5612;SDS011;63463;53.586;9.928;2022-10-16T10:06:34;3.27;;;2.10;;
5612;SDS011;63463;53.586;9.928;2022-10-16T10:09:04;5.33;;;2.70;;
5612;SDS011;63463;53.586;9.928;2022-10-16T10:14:13;3.73;;;2.80;;
5612;SDS011;63463;53.586;9.928;2022-10-16T10:16:41;2.20;;;2.10;;
5612;SDS011;63463;53.586;9.928;2022-10-16T10:19:20;2.67;;;2.47;;
5612;SDS011;63463;53.586;9.928;2022-10-16T10:21:46;3.70;;;2.10;;
5612;SDS011;63463;53.586;9.928;2022-10-16T10:24:13;2.50;;;2.33;;
5612;SDS011;63463;53.586;9.928;2022-10-16T10:26:41;3.53;;;2.23;;
5612;SDS011;63463;53.586;9.928;2022-10-16T10:29:22;2.43;;;2.27;;
5612;SDS011;63463;53.586;9.928;2022-10-16T10:50:02;3.10;;;2.17;;
5612;SDS011;63463;53.586;9.928;2022-10-16T10:53:16;2.30;;;2.20;;
5612;SDS011;63463;53.586;9.928;2022-10-16T10:55:33;4.37;;;1.90;;
5612;SDS011;63463;53.586;9.928;2022-10-16T11:06:18;7.87;;;2.13;;
5612;SDS011;63463;53.586;9.928;2022-10-16T11:09:00;4.80;;;1.70;;
5612;SDS011;63463;53.586;9.928;2022-10-16T11:11:41;3.33;;;1.80;;
5612;SDS011;63463;53.586;9.928;2022-10-16T11:14:13;2.30;;;1.63;;
5612;SDS011;63463;53.586;9.928;2022-10-16T11:16:49;5.13;;;2.30;;
5612;SDS011;63463;53.586;9.928;2022-10-16T11:19:40;7.00;;;1.90;;
5612;SDS011;63463;53.586;9.928;2022-10-16T11:22:20;1.70;;;1.60;;
5612;SDS011;63463;53.586;9.928;2022-10-16T11:27:19;3.43;;;1.67;;
5612;SDS011;63463;53.586;9.928;2022-10-16T11:29:52;4.20;;;2.00;;
5612;SDS011;63463;53.586;9.928;2022-10-16T11:32:23;26.83;;;2.20;;
5612;SDS011;63463;53.586;9.928;2022-10-16T11:34:55;7.63;;;1.23;;
5612;SDS011;63463;53.586;9.928;2022-10-16T11:37:27;4.47;;;1.43;;
5612;SDS011;63463;53.586;9.928;2022-10-16T11:39:58;3.23;;;1.60;;
5612;SDS011;63463;53.586;9.928;2022-10-16T11:42:37;9.77;;;1.67;;
5612;SDS011;63463;53.586;9.928;2022-10-16T11:45:23;6.43;;;1.43;;
5612;SDS011;63463;53.586;9.928;2022-10-16T11:50:29;2.63;;;1.43;;
5612;SDS011;63463;53.586;9.928;2022-10-16T11:55:31;2.60;;;2.10;;
5612;SDS011;63463;53.586;9.928;2022-10-16T11:58:45;3.80;;;1.57;;
5612;SDS011;63463;53.586;9.928;2022-10-16T12:08:09;6.47;;;2.03;;
5612;SDS011;63463;53.586;9.928;2022-10-16T12:10:36;2.10;;;1.60;;
5612;SDS011;63463;53.586;9.928;2022-10-16T12:13:03;3.47;;;1.70;;
5612;SDS011;63463;53.586;9.928;2022-10-16T12:15:32;3.03;;;1.70;;
5612;SDS011;63463;53.586;9.928;2022-10-16T12:17:59;7.17;;;1.60;;
5612;SDS011;63463;53.586;9.928;2022-10-16T12:20:31;3.90;;;1.80;;
5612;SDS011;63463;53.586;9.928;2022-10-16T12:23:00;3.53;;;1.67;;
5612;SDS011;63463;53.586;9.928;2022-10-16T12:25:33;4.50;;;2.00;;
5612;SDS011;63463;53.586;9.928;2022-10-16T12:30:26;4.93;;;2.40;;
5612;SDS011;63463;53.586;9.928;2022-10-16T12:33:00;4.00;;;2.07;;
5612;SDS011;63463;53.586;9.928;2022-10-16T12:35:30;5.27;;;1.87;;
5612;SDS011;63463;53.586;9.928;2022-10-16T12:40:43;3.23;;;2.03;;
5612;SDS011;63463;53.586;9.928;2022-10-16T12:43:13;9.40;;;2.00;;
5612;SDS011;63463;53.586;9.928;2022-10-16T12:45:58;7.60;;;2.20;;
5612;SDS011;63463;53.586;9.928;2022-10-16T12:48:24;3.23;;;1.90;;
5612;SDS011;63463;53.586;9.928;2022-10-16T12:50:50;5.30;;;1.73;;
5612;SDS011;63463;53.586;9.928;2022-10-16T12:53:17;3.70;;;1.77;;
5612;SDS011;63463;53.586;9.928;2022-10-16T12:56:27;1.57;;;1.47;;
5612;SDS011;63463;53.586;9.928;2022-10-16T13:01:06;2.23;;;1.60;;
5612;SDS011;63463;53.586;9.928;2022-10-16T13:03:45;8.47;;;1.80;;
5612;SDS011;63463;53.586;9.928;2022-10-16T13:09:00;4.37;;;1.57;;
5612;SDS011;63463;53.586;9.928;2022-10-16T13:14:23;6.40;;;1.97;;
5612;SDS011;63463;53.586;9.928;2022-10-16T13:17:36;3.83;;;1.80;;
5612;SDS011;63463;53.586;9.928;2022-10-16T13:22:24;3.70;;;1.50;;
5612;SDS011;63463;53.586;9.928;2022-10-16T13:24:58;5.63;;;1.80;;
5612;SDS011;63463;53.586;9.928;2022-10-16T13:30:11;5.97;;;2.00;;
5612;SDS011;63463;53.586;9.928;2022-10-16T13:32:38;1.87;;;1.70;;
5612;SDS011;63463;53.586;9.928;2022-10-16T13:35:15;1.70;;;1.60;;
5612;SDS011;63463;53.586;9.928;2022-10-16T13:37:43;2.60;;;1.60;;
5612;SDS011;63463;53.586;9.928;2022-10-16T13:40:20;2.83;;;1.93;;
5612;SDS011;63463;53.586;9.928;2022-10-16T13:42:47;1.77;;;1.67;;
5612;SDS011;63463;53.586;9.928;2022-10-16T13:45:16;5.77;;;1.87;;
5612;SDS011;63463;53.586;9.928;2022-10-16T13:47:43;5.50;;;1.83;;
5612;SDS011;63463;53.586;9.928;2022-10-16T13:50:11;7.30;;;1.63;;
5612;SDS011;63463;53.586;9.928;2022-10-16T13:52:37;1.60;;;1.50;;
5612;SDS011;63463;53.586;9.928;2022-10-16T13:55:04;5.90;;;2.00;;
5612;SDS011;63463;53.586;9.928;2022-10-16T13:57:30;2.70;;;1.80;;
5612;SDS011;63463;53.586;9.928;2022-10-16T13:59:56;1.90;;;1.80;;
5612;SDS011;63463;53.586;9.928;2022-10-16T14:02:25;3.97;;;2.23;;
5612;SDS011;63463;53.586;9.928;2022-10-16T14:04:52;3.57;;;1.93;;
5612;SDS011;63463;53.586;9.928;2022-10-16T14:07:29;5.93;;;1.80;;
5612;SDS011;63463;53.586;9.928;2022-10-16T14:09:58;2.80;;;1.63;;
5612;SDS011;63463;53.586;9.928;2022-10-16T14:12:26;4.27;;;1.90;;
5612;SDS011;63463;53.586;9.928;2022-10-16T14:14:52;15.97;;;2.43;;
5612;SDS011;63463;53.586;9.928;2022-10-16T14:17:21;1.87;;;1.57;;
5612;SDS011;63463;53.586;9.928;2022-10-16T14:19:48;2.20;;;1.60;;
5612;SDS011;63463;53.586;9.928;2022-10-16T14:22:21;1.80;;;1.70;;
5612;SDS011;63463;53.586;9.928;2022-10-16T14:24:48;3.60;;;2.07;;
5612;SDS011;63463;53.586;9.928;2022-10-16T14:27:23;9.13;;;1.50;;
5612;SDS011;63463;53.586;9.928;2022-10-16T14:29:50;6.00;;;1.73;;
5612;SDS011;63463;53.586;9.928;2022-10-16T14:32:26;8.23;;;2.87;;
5612;SDS011;63463;53.586;9.928;2022-10-16T14:34:52;5.73;;;3.37;;
5612;SDS011;63463;53.586;9.928;2022-10-16T14:37:25;2.50;;;1.77;;
5612;SDS011;63463;53.586;9.928;2022-10-16T14:39:52;3.53;;;1.73;;
5612;SDS011;63463;53.586;9.928;2022-10-16T14:42:19;1.70;;;1.60;;
5612;SDS011;63463;53.586;9.928;2022-10-16T14:44:46;7.27;;;2.40;;
5612;SDS011;63463;53.586;9.928;2022-10-16T14:47:14;4.17;;;2.20;;
5612;SDS011;63463;53.586;9.928;2022-10-16T14:49:41;8.23;;;2.40;;
5612;SDS011;63463;53.586;9.928;2022-10-16T14:52:08;10.73;;;1.80;;
5612;SDS011;63463;53.586;9.928;2022-10-16T14:54:35;6.10;;;1.80;;
5612;SDS011;63463;53.586;9.928;2022-10-16T14:57:01;1.80;;;1.70;;
5612;SDS011;63463;53.586;9.928;2022-10-16T15:01:57;3.67;;;1.83;;
5612;SDS011;63463;53.586;9.928;2022-10-16T15:04:23;4.90;;;1.77;;
5612;SDS011;63463;53.586;9.928;2022-10-16T15:06:49;7.80;;;2.03;;
5612;SDS011;63463;53.586;9.928;2022-10-16T15:09:15;7.67;;;1.93;;
5612;SDS011;63463;53.586;9.928;2022-10-16T15:11:41;3.17;;;1.90;;
5612;SDS011;63463;53.586;9.928;2022-10-16T15:14:12;6.23;;;1.80;;
5612;SDS011;63463;53.586;9.928;2022-10-16T15:16:38;8.33;;;2.37;;
5612;SDS011;63463;53.586;9.928;2022-10-16T15:19:04;3.43;;;2.30;;
5612;SDS011;63463;53.586;9.928;2022-10-16T15:21:31;7.50;;;2.07;;
5612;SDS011;63463;53.586;9.928;2022-10-16T15:23:58;3.63;;;1.87;;
5612;SDS011;63463;53.586;9.928;2022-10-16T15:26:25;8.83;;;2.30;;
5612;SDS011;63463;53.586;9.928;2022-10-16T15:28:51;4.03;;;2.00;;
5612;SDS011;63463;53.586;9.928;2022-10-16T15:31:17;3.43;;;1.97;;
5612;SDS011;63463;53.586;9.928;2022-10-16T15:33:46;8.80;;;1.93;;
5612;SDS011;63463;53.586;9.928;2022-10-16T15:36:23;6.17;;;2.23;;
5612;SDS011;63463;53.586;9.928;2022-10-16T15:38:50;8.83;;;2.00;;
5612;SDS011;63463;53.586;9.928;2022-10-16T15:41:15;8.63;;;2.60;;
5612;SDS011;63463;53.586;9.928;2022-10-16T15:43:41;6.90;;;1.90;;
5612;SDS011;63463;53.586;9.928;2022-10-16T15:46:09;3.43;;;2.03;;
5612;SDS011;63463;53.586;9.928;2022-10-16T15:48:37;7.60;;;2.50;;
5612;SDS011;63463;53.586;9.928;2022-10-16T15:51:04;4.30;;;1.90;;
5612;SDS011;63463;53.586;9.928;2022-10-16T15:53:31;5.60;;;2.43;;
5612;SDS011;63463;53.586;9.928;2022-10-16T15:56:11;11.53;;;2.90;;
5612;SDS011;63463;53.586;9.928;2022-10-16T15:58:38;7.37;;;2.23;;
5612;SDS011;63463;53.586;9.928;2022-10-16T16:01:04;40.93;;;5.47;;
5612;SDS011;63463;53.586;9.928;2022-10-16T16:06:17;37.80;;;3.30;;
5612;SDS011;63463;53.586;9.928;2022-10-16T16:08:50;4.23;;;2.30;;
5612;SDS011;63463;53.586;9.928;2022-10-16T16:11:39;38.37;;;4.20;;
5612;SDS011;63463;53.586;9.928;2022-10-16T16:14:10;7.73;;;2.20;;
5612;SDS011;63463;53.586;9.928;2022-10-16T16:16:37;2.83;;;2.23;;
5612;SDS011;63463;53.586;9.928;2022-10-16T16:19:06;2.57;;;2.37;;
5612;SDS011;63463;53.586;9.928;2022-10-16T16:21:33;7.83;;;2.13;;
5612;SDS011;63463;53.586;9.928;2022-10-16T16:23:59;3.37;;;2.50;;
5612;SDS011;63463;53.586;9.928;2022-10-16T16:26:26;4.73;;;2.43;;
5612;SDS011;63463;53.586;9.928;2022-10-16T16:28:54;2.20;;;2.00;;
5612;SDS011;63463;53.586;9.928;2022-10-16T16:31:23;2.17;;;1.80;;
5612;SDS011;63463;53.586;9.928;2022-10-16T16:33:49;2.50;;;2.13;;
5612;SDS011;63463;53.586;9.928;2022-10-16T16:36:16;4.37;;;2.33;;
5612;SDS011;63463;53.586;9.928;2022-10-16T16:38:43;10.33;;;2.30;;
5612;SDS011;63463;53.586;9.928;2022-10-16T16:41:16;3.93;;;2.37;;
5612;SDS011;63463;53.586;9.928;2022-10-16T16:43:42;5.33;;;2.00;;
5612;SDS011;63463;53.586;9.928;2022-10-16T16:46:09;9.13;;;2.50;;
5612;SDS011;63463;53.586;9.928;2022-10-16T16:48:35;7.70;;;2.23;;
5612;SDS011;63463;53.586;9.928;2022-10-16T16:51:05;4.60;;;2.50;;
5612;SDS011;63463;53.586;9.928;2022-10-16T16:53:32;5.77;;;2.37;;